<?xml version="1.0" encoding="UTF-8" standalone="no" ?>
<gpx xmlns="http://www.topografix.com/GPX/1/1" xmlns:xsi="http://www.w3.org/2001/XMLSchema-instance" xsi:schemaLocation="http://www.topografix.com/GPX/1/1 http://www.topografix.com/GPX/1/1/gpx.xsd" version="1.1" creator="VisuGPX - https://www.visugpx.com">
  <metadata>
    <name>Course à pied le midi</name>
    <desc><![CDATA[Enfin le 🌞 est de sortie 🤩]]></desc>
  </metadata>
  <trk>
    <name><![CDATA[Course à pied le midi_1]]></name>
    <trkseg>
      <trkpt lat="45.54275" lon="-0.77632">
        <ele>39</ele>
        <time>2023-10-30T10:54:19Z</time>
      </trkpt>
      <trkpt lat="45.5426" lon="-0.77648">
        <ele>39.1</ele>
        <time>2023-10-30T10:54:26Z</time>
      </trkpt>
      <trkpt lat="45.54252" lon="-0.77671">
        <ele>39.3</ele>
        <time>2023-10-30T10:54:33Z</time>
      </trkpt>
      <trkpt lat="45.54254" lon="-0.77678">
        <ele>39.3</ele>
        <time>2023-10-30T10:54:35Z</time>
      </trkpt>
      <trkpt lat="45.54268" lon="-0.77694">
        <ele>39.4</ele>
        <time>2023-10-30T10:54:43Z</time>
      </trkpt>
      <trkpt lat="45.54274" lon="-0.77702">
        <ele>39.5</ele>
        <time>2023-10-30T10:54:47Z</time>
      </trkpt>
      <trkpt lat="45.54268" lon="-0.77729">
        <ele>39.7</ele>
        <time>2023-10-30T10:54:56Z</time>
      </trkpt>
      <trkpt lat="45.54259" lon="-0.77752">
        <ele>39.8</ele>
        <time>2023-10-30T10:55:04Z</time>
      </trkpt>
      <trkpt lat="45.54245" lon="-0.77773">
        <ele>39.9</ele>
        <time>2023-10-30T10:55:12Z</time>
      </trkpt>
      <trkpt lat="45.54229" lon="-0.77791">
        <ele>40.1</ele>
        <time>2023-10-30T10:55:20Z</time>
      </trkpt>
      <trkpt lat="45.54214" lon="-0.77808">
        <ele>40.2</ele>
        <time>2023-10-30T10:55:27Z</time>
      </trkpt>
      <trkpt lat="45.542" lon="-0.77825">
        <ele>40.4</ele>
        <time>2023-10-30T10:55:34Z</time>
      </trkpt>
      <trkpt lat="45.54188" lon="-0.77846">
        <ele>40.6</ele>
        <time>2023-10-30T10:55:42Z</time>
      </trkpt>
      <trkpt lat="45.54197" lon="-0.77869">
        <ele>40.6</ele>
        <time>2023-10-30T10:55:49Z</time>
      </trkpt>
      <trkpt lat="45.54202" lon="-0.77896">
        <ele>40.7</ele>
        <time>2023-10-30T10:55:56Z</time>
      </trkpt>
      <trkpt lat="45.5421" lon="-0.77921">
        <ele>40.9</ele>
        <time>2023-10-30T10:56:03Z</time>
      </trkpt>
      <trkpt lat="45.54219" lon="-0.77944">
        <ele>41</ele>
        <time>2023-10-30T10:56:10Z</time>
      </trkpt>
      <trkpt lat="45.54227" lon="-0.77969">
        <ele>41.1</ele>
        <time>2023-10-30T10:56:17Z</time>
      </trkpt>
      <trkpt lat="45.54223" lon="-0.77994">
        <ele>41.2</ele>
        <time>2023-10-30T10:56:24Z</time>
      </trkpt>
      <trkpt lat="45.54209" lon="-0.78013">
        <ele>41.2</ele>
        <time>2023-10-30T10:56:30Z</time>
      </trkpt>
      <trkpt lat="45.54195" lon="-0.78035">
        <ele>41.2</ele>
        <time>2023-10-30T10:56:37Z</time>
      </trkpt>
      <trkpt lat="45.5418" lon="-0.78055">
        <ele>41.3</ele>
        <time>2023-10-30T10:56:44Z</time>
      </trkpt>
      <trkpt lat="45.54167" lon="-0.78073">
        <ele>41.3</ele>
        <time>2023-10-30T10:56:50Z</time>
      </trkpt>
      <trkpt lat="45.54155" lon="-0.78096">
        <ele>41.3</ele>
        <time>2023-10-30T10:56:57Z</time>
      </trkpt>
      <trkpt lat="45.54147" lon="-0.7812">
        <ele>41.4</ele>
        <time>2023-10-30T10:57:03Z</time>
      </trkpt>
      <trkpt lat="45.54142" lon="-0.78148">
        <ele>41.5</ele>
        <time>2023-10-30T10:57:10Z</time>
      </trkpt>
      <trkpt lat="45.54136" lon="-0.78173">
        <ele>41.6</ele>
        <time>2023-10-30T10:57:16Z</time>
      </trkpt>
      <trkpt lat="45.54132" lon="-0.78198">
        <ele>41.7</ele>
        <time>2023-10-30T10:57:22Z</time>
      </trkpt>
      <trkpt lat="45.54122" lon="-0.78224">
        <ele>41.8</ele>
        <time>2023-10-30T10:57:29Z</time>
      </trkpt>
      <trkpt lat="45.54109" lon="-0.78245">
        <ele>41.9</ele>
        <time>2023-10-30T10:57:36Z</time>
      </trkpt>
      <trkpt lat="45.54094" lon="-0.78264">
        <ele>42</ele>
        <time>2023-10-30T10:57:43Z</time>
      </trkpt>
      <trkpt lat="45.54079" lon="-0.78284">
        <ele>41.8</ele>
        <time>2023-10-30T10:57:50Z</time>
      </trkpt>
      <trkpt lat="45.54066" lon="-0.78303">
        <ele>41.6</ele>
        <time>2023-10-30T10:57:56Z</time>
      </trkpt>
      <trkpt lat="45.54049" lon="-0.78319">
        <ele>41.2</ele>
        <time>2023-10-30T10:58:03Z</time>
      </trkpt>
      <trkpt lat="45.5403" lon="-0.78329">
        <ele>41.3</ele>
        <time>2023-10-30T10:58:10Z</time>
      </trkpt>
      <trkpt lat="45.54011" lon="-0.78338">
        <ele>41.4</ele>
        <time>2023-10-30T10:58:17Z</time>
      </trkpt>
      <trkpt lat="45.53991" lon="-0.78346">
        <ele>41.4</ele>
        <time>2023-10-30T10:58:24Z</time>
      </trkpt>
      <trkpt lat="45.53971" lon="-0.78352">
        <ele>41.5</ele>
        <time>2023-10-30T10:58:31Z</time>
      </trkpt>
      <trkpt lat="45.53951" lon="-0.78356">
        <ele>41.6</ele>
        <time>2023-10-30T10:58:38Z</time>
      </trkpt>
      <trkpt lat="45.53932" lon="-0.78358">
        <ele>41.7</ele>
        <time>2023-10-30T10:58:44Z</time>
      </trkpt>
      <trkpt lat="45.53914" lon="-0.78361">
        <ele>41.7</ele>
        <time>2023-10-30T10:58:50Z</time>
      </trkpt>
      <trkpt lat="45.53893" lon="-0.78364">
        <ele>41.8</ele>
        <time>2023-10-30T10:58:57Z</time>
      </trkpt>
      <trkpt lat="45.53874" lon="-0.78373">
        <ele>41.9</ele>
        <time>2023-10-30T10:59:04Z</time>
      </trkpt>
      <trkpt lat="45.53856" lon="-0.78389">
        <ele>41.7</ele>
        <time>2023-10-30T10:59:11Z</time>
      </trkpt>
      <trkpt lat="45.5384" lon="-0.78407">
        <ele>41.7</ele>
        <time>2023-10-30T10:59:18Z</time>
      </trkpt>
      <trkpt lat="45.53824" lon="-0.78426">
        <ele>41.7</ele>
        <time>2023-10-30T10:59:25Z</time>
      </trkpt>
      <trkpt lat="45.53808" lon="-0.78443">
        <ele>41.8</ele>
        <time>2023-10-30T10:59:32Z</time>
      </trkpt>
      <trkpt lat="45.53793" lon="-0.78461">
        <ele>41.9</ele>
        <time>2023-10-30T10:59:39Z</time>
      </trkpt>
      <trkpt lat="45.53777" lon="-0.78481">
        <ele>42</ele>
        <time>2023-10-30T10:59:46Z</time>
      </trkpt>
      <trkpt lat="45.53762" lon="-0.78501">
        <ele>42.1</ele>
        <time>2023-10-30T10:59:53Z</time>
      </trkpt>
      <trkpt lat="45.53747" lon="-0.7852">
        <ele>42</ele>
        <time>2023-10-30T11:00:00Z</time>
      </trkpt>
      <trkpt lat="45.53732" lon="-0.78539">
        <ele>42.3</ele>
        <time>2023-10-30T11:00:07Z</time>
      </trkpt>
      <trkpt lat="45.53717" lon="-0.78557">
        <ele>42.5</ele>
        <time>2023-10-30T11:00:14Z</time>
      </trkpt>
      <trkpt lat="45.53701" lon="-0.78577">
        <ele>42.6</ele>
        <time>2023-10-30T11:00:21Z</time>
      </trkpt>
      <trkpt lat="45.53687" lon="-0.78594">
        <ele>42.8</ele>
        <time>2023-10-30T11:00:27Z</time>
      </trkpt>
      <trkpt lat="45.53671" lon="-0.78612">
        <ele>43</ele>
        <time>2023-10-30T11:00:34Z</time>
      </trkpt>
      <trkpt lat="45.53658" lon="-0.78633">
        <ele>43.3</ele>
        <time>2023-10-30T11:00:41Z</time>
      </trkpt>
      <trkpt lat="45.53646" lon="-0.78656">
        <ele>43.3</ele>
        <time>2023-10-30T11:00:48Z</time>
      </trkpt>
      <trkpt lat="45.53636" lon="-0.78682">
        <ele>43.3</ele>
        <time>2023-10-30T11:00:55Z</time>
      </trkpt>
      <trkpt lat="45.53625" lon="-0.78707">
        <ele>43.2</ele>
        <time>2023-10-30T11:01:02Z</time>
      </trkpt>
      <trkpt lat="45.53614" lon="-0.78732">
        <ele>43.1</ele>
        <time>2023-10-30T11:01:09Z</time>
      </trkpt>
      <trkpt lat="45.53604" lon="-0.78753">
        <ele>43</ele>
        <time>2023-10-30T11:01:15Z</time>
      </trkpt>
      <trkpt lat="45.53592" lon="-0.78778">
        <ele>42.9</ele>
        <time>2023-10-30T11:01:22Z</time>
      </trkpt>
      <trkpt lat="45.53579" lon="-0.788">
        <ele>42.8</ele>
        <time>2023-10-30T11:01:29Z</time>
      </trkpt>
      <trkpt lat="45.53569" lon="-0.78822">
        <ele>42.8</ele>
        <time>2023-10-30T11:01:35Z</time>
      </trkpt>
      <trkpt lat="45.53558" lon="-0.78846">
        <ele>42.7</ele>
        <time>2023-10-30T11:01:42Z</time>
      </trkpt>
      <trkpt lat="45.53548" lon="-0.78867">
        <ele>42.6</ele>
        <time>2023-10-30T11:01:48Z</time>
      </trkpt>
      <trkpt lat="45.53538" lon="-0.7889">
        <ele>42.5</ele>
        <time>2023-10-30T11:01:54Z</time>
      </trkpt>
      <trkpt lat="45.53527" lon="-0.78912">
        <ele>42.4</ele>
        <time>2023-10-30T11:02:00Z</time>
      </trkpt>
      <trkpt lat="45.53517" lon="-0.78936">
        <ele>42.4</ele>
        <time>2023-10-30T11:02:06Z</time>
      </trkpt>
      <trkpt lat="45.53508" lon="-0.78959">
        <ele>42.3</ele>
        <time>2023-10-30T11:02:12Z</time>
      </trkpt>
      <trkpt lat="45.53498" lon="-0.78982">
        <ele>42.2</ele>
        <time>2023-10-30T11:02:18Z</time>
      </trkpt>
      <trkpt lat="45.53488" lon="-0.79007">
        <ele>42.1</ele>
        <time>2023-10-30T11:02:25Z</time>
      </trkpt>
      <trkpt lat="45.53476" lon="-0.79031">
        <ele>42</ele>
        <time>2023-10-30T11:02:32Z</time>
      </trkpt>
      <trkpt lat="45.53464" lon="-0.79055">
        <ele>41.9</ele>
        <time>2023-10-30T11:02:39Z</time>
      </trkpt>
      <trkpt lat="45.53454" lon="-0.79077">
        <ele>41.9</ele>
        <time>2023-10-30T11:02:45Z</time>
      </trkpt>
      <trkpt lat="45.53445" lon="-0.79099">
        <ele>41.8</ele>
        <time>2023-10-30T11:02:51Z</time>
      </trkpt>
      <trkpt lat="45.53434" lon="-0.79122">
        <ele>41.7</ele>
        <time>2023-10-30T11:02:57Z</time>
      </trkpt>
      <trkpt lat="45.53424" lon="-0.79145">
        <ele>41.6</ele>
        <time>2023-10-30T11:03:03Z</time>
      </trkpt>
      <trkpt lat="45.53412" lon="-0.79169">
        <ele>41.5</ele>
        <time>2023-10-30T11:03:10Z</time>
      </trkpt>
      <trkpt lat="45.53401" lon="-0.79191">
        <ele>41.5</ele>
        <time>2023-10-30T11:03:16Z</time>
      </trkpt>
      <trkpt lat="45.53392" lon="-0.79214">
        <ele>41.4</ele>
        <time>2023-10-30T11:03:22Z</time>
      </trkpt>
      <trkpt lat="45.53382" lon="-0.79237">
        <ele>41.3</ele>
        <time>2023-10-30T11:03:28Z</time>
      </trkpt>
      <trkpt lat="45.53372" lon="-0.79258">
        <ele>41.2</ele>
        <time>2023-10-30T11:03:34Z</time>
      </trkpt>
      <trkpt lat="45.53359" lon="-0.79277">
        <ele>41.3</ele>
        <time>2023-10-30T11:03:40Z</time>
      </trkpt>
      <trkpt lat="45.53346" lon="-0.79296">
        <ele>41.5</ele>
        <time>2023-10-30T11:03:46Z</time>
      </trkpt>
      <trkpt lat="45.53332" lon="-0.79313">
        <ele>41.6</ele>
        <time>2023-10-30T11:03:52Z</time>
      </trkpt>
      <trkpt lat="45.53317" lon="-0.79333">
        <ele>41.8</ele>
        <time>2023-10-30T11:03:59Z</time>
      </trkpt>
      <trkpt lat="45.53303" lon="-0.79352">
        <ele>42.2</ele>
        <time>2023-10-30T11:04:05Z</time>
      </trkpt>
      <trkpt lat="45.53289" lon="-0.79369">
        <ele>42.6</ele>
        <time>2023-10-30T11:04:11Z</time>
      </trkpt>
      <trkpt lat="45.53276" lon="-0.79387">
        <ele>42.9</ele>
        <time>2023-10-30T11:04:17Z</time>
      </trkpt>
      <trkpt lat="45.53261" lon="-0.79403">
        <ele>43.3</ele>
        <time>2023-10-30T11:04:23Z</time>
      </trkpt>
      <trkpt lat="45.53248" lon="-0.79421">
        <ele>43.7</ele>
        <time>2023-10-30T11:04:29Z</time>
      </trkpt>
      <trkpt lat="45.53235" lon="-0.7944">
        <ele>44.2</ele>
        <time>2023-10-30T11:04:35Z</time>
      </trkpt>
      <trkpt lat="45.53222" lon="-0.79458">
        <ele>44.6</ele>
        <time>2023-10-30T11:04:41Z</time>
      </trkpt>
      <trkpt lat="45.53207" lon="-0.79479">
        <ele>45.1</ele>
        <time>2023-10-30T11:04:48Z</time>
      </trkpt>
      <trkpt lat="45.53192" lon="-0.79499">
        <ele>45.6</ele>
        <time>2023-10-30T11:04:55Z</time>
      </trkpt>
      <trkpt lat="45.53177" lon="-0.79518">
        <ele>46.1</ele>
        <time>2023-10-30T11:05:02Z</time>
      </trkpt>
      <trkpt lat="45.53163" lon="-0.79535">
        <ele>46.6</ele>
        <time>2023-10-30T11:05:08Z</time>
      </trkpt>
      <trkpt lat="45.53147" lon="-0.79554">
        <ele>47.1</ele>
        <time>2023-10-30T11:05:15Z</time>
      </trkpt>
      <trkpt lat="45.53133" lon="-0.79571">
        <ele>47.5</ele>
        <time>2023-10-30T11:05:21Z</time>
      </trkpt>
      <trkpt lat="45.53117" lon="-0.79588">
        <ele>48</ele>
        <time>2023-10-30T11:05:28Z</time>
      </trkpt>
      <trkpt lat="45.53101" lon="-0.79606">
        <ele>48.5</ele>
        <time>2023-10-30T11:05:35Z</time>
      </trkpt>
      <trkpt lat="45.53085" lon="-0.79626">
        <ele>49</ele>
        <time>2023-10-30T11:05:42Z</time>
      </trkpt>
      <trkpt lat="45.5307" lon="-0.79645">
        <ele>49.5</ele>
        <time>2023-10-30T11:05:49Z</time>
      </trkpt>
      <trkpt lat="45.53056" lon="-0.79665">
        <ele>49.8</ele>
        <time>2023-10-30T11:05:56Z</time>
      </trkpt>
      <trkpt lat="45.53043" lon="-0.79688">
        <ele>50.2</ele>
        <time>2023-10-30T11:06:03Z</time>
      </trkpt>
      <trkpt lat="45.53034" lon="-0.79711">
        <ele>50.5</ele>
        <time>2023-10-30T11:06:09Z</time>
      </trkpt>
      <trkpt lat="45.53026" lon="-0.79736">
        <ele>50.6</ele>
        <time>2023-10-30T11:06:15Z</time>
      </trkpt>
      <trkpt lat="45.53019" lon="-0.79763">
        <ele>51.3</ele>
        <time>2023-10-30T11:06:21Z</time>
      </trkpt>
      <trkpt lat="45.53012" lon="-0.79787">
        <ele>52.1</ele>
        <time>2023-10-30T11:06:27Z</time>
      </trkpt>
      <trkpt lat="45.53002" lon="-0.79808">
        <ele>52.9</ele>
        <time>2023-10-30T11:06:33Z</time>
      </trkpt>
      <trkpt lat="45.52989" lon="-0.79829">
        <ele>53.8</ele>
        <time>2023-10-30T11:06:40Z</time>
      </trkpt>
      <trkpt lat="45.52976" lon="-0.79848">
        <ele>54.7</ele>
        <time>2023-10-30T11:06:46Z</time>
      </trkpt>
      <trkpt lat="45.52964" lon="-0.79867">
        <ele>55.3</ele>
        <time>2023-10-30T11:06:52Z</time>
      </trkpt>
      <trkpt lat="45.52952" lon="-0.79887">
        <ele>56</ele>
        <time>2023-10-30T11:06:58Z</time>
      </trkpt>
      <trkpt lat="45.52942" lon="-0.79908">
        <ele>56.4</ele>
        <time>2023-10-30T11:07:04Z</time>
      </trkpt>
      <trkpt lat="45.52931" lon="-0.79933">
        <ele>56.4</ele>
        <time>2023-10-30T11:07:11Z</time>
      </trkpt>
      <trkpt lat="45.52922" lon="-0.79955">
        <ele>56.4</ele>
        <time>2023-10-30T11:07:17Z</time>
      </trkpt>
      <trkpt lat="45.52914" lon="-0.79979">
        <ele>56.1</ele>
        <time>2023-10-30T11:07:23Z</time>
      </trkpt>
      <trkpt lat="45.52905" lon="-0.80005">
        <ele>55.5</ele>
        <time>2023-10-30T11:07:29Z</time>
      </trkpt>
      <trkpt lat="45.52896" lon="-0.8003">
        <ele>54.7</ele>
        <time>2023-10-30T11:07:35Z</time>
      </trkpt>
      <trkpt lat="45.52887" lon="-0.80053">
        <ele>54</ele>
        <time>2023-10-30T11:07:41Z</time>
      </trkpt>
      <trkpt lat="45.52877" lon="-0.80079">
        <ele>52.9</ele>
        <time>2023-10-30T11:07:47Z</time>
      </trkpt>
      <trkpt lat="45.5287" lon="-0.80102">
        <ele>51.9</ele>
        <time>2023-10-30T11:07:52Z</time>
      </trkpt>
      <trkpt lat="45.52868" lon="-0.80129">
        <ele>51.5</ele>
        <time>2023-10-30T11:07:58Z</time>
      </trkpt>
      <trkpt lat="45.52876" lon="-0.80154">
        <ele>51.5</ele>
        <time>2023-10-30T11:08:04Z</time>
      </trkpt>
      <trkpt lat="45.52885" lon="-0.8018">
        <ele>51.5</ele>
        <time>2023-10-30T11:08:11Z</time>
      </trkpt>
      <trkpt lat="45.52895" lon="-0.80204">
        <ele>51.8</ele>
        <time>2023-10-30T11:08:18Z</time>
      </trkpt>
      <trkpt lat="45.52906" lon="-0.8023">
        <ele>52.3</ele>
        <time>2023-10-30T11:08:25Z</time>
      </trkpt>
      <trkpt lat="45.52917" lon="-0.80251">
        <ele>52.8</ele>
        <time>2023-10-30T11:08:31Z</time>
      </trkpt>
      <trkpt lat="45.52931" lon="-0.80271">
        <ele>53.5</ele>
        <time>2023-10-30T11:08:38Z</time>
      </trkpt>
      <trkpt lat="45.52949" lon="-0.80285">
        <ele>54.1</ele>
        <time>2023-10-30T11:08:45Z</time>
      </trkpt>
      <trkpt lat="45.52966" lon="-0.80293">
        <ele>54.7</ele>
        <time>2023-10-30T11:08:51Z</time>
      </trkpt>
      <trkpt lat="45.52986" lon="-0.80298">
        <ele>55.3</ele>
        <time>2023-10-30T11:08:58Z</time>
      </trkpt>
      <trkpt lat="45.53006" lon="-0.80298">
        <ele>56</ele>
        <time>2023-10-30T11:09:04Z</time>
      </trkpt>
      <trkpt lat="45.53025" lon="-0.80294">
        <ele>56.6</ele>
        <time>2023-10-30T11:09:10Z</time>
      </trkpt>
      <trkpt lat="45.53044" lon="-0.80287">
        <ele>57.2</ele>
        <time>2023-10-30T11:09:16Z</time>
      </trkpt>
      <trkpt lat="45.53062" lon="-0.80282">
        <ele>57.6</ele>
        <time>2023-10-30T11:09:22Z</time>
      </trkpt>
      <trkpt lat="45.53081" lon="-0.80277">
        <ele>57.8</ele>
        <time>2023-10-30T11:09:28Z</time>
      </trkpt>
      <trkpt lat="45.53099" lon="-0.80271">
        <ele>57.9</ele>
        <time>2023-10-30T11:09:34Z</time>
      </trkpt>
      <trkpt lat="45.53117" lon="-0.80265">
        <ele>57.8</ele>
        <time>2023-10-30T11:09:40Z</time>
      </trkpt>
      <trkpt lat="45.53138" lon="-0.80261">
        <ele>57.8</ele>
        <time>2023-10-30T11:09:46Z</time>
      </trkpt>
      <trkpt lat="45.53157" lon="-0.80262">
        <ele>57.7</ele>
        <time>2023-10-30T11:09:52Z</time>
      </trkpt>
      <trkpt lat="45.53176" lon="-0.80267">
        <ele>57.6</ele>
        <time>2023-10-30T11:09:58Z</time>
      </trkpt>
      <trkpt lat="45.53194" lon="-0.80276">
        <ele>57.5</ele>
        <time>2023-10-30T11:10:04Z</time>
      </trkpt>
      <trkpt lat="45.53211" lon="-0.80291">
        <ele>57.4</ele>
        <time>2023-10-30T11:10:10Z</time>
      </trkpt>
      <trkpt lat="45.53225" lon="-0.8031">
        <ele>57.4</ele>
        <time>2023-10-30T11:10:16Z</time>
      </trkpt>
      <trkpt lat="45.53237" lon="-0.80334">
        <ele>57.5</ele>
        <time>2023-10-30T11:10:23Z</time>
      </trkpt>
      <trkpt lat="45.53247" lon="-0.80358">
        <ele>57.6</ele>
        <time>2023-10-30T11:10:30Z</time>
      </trkpt>
      <trkpt lat="45.53257" lon="-0.80381">
        <ele>57.6</ele>
        <time>2023-10-30T11:10:36Z</time>
      </trkpt>
      <trkpt lat="45.53268" lon="-0.80406">
        <ele>57.7</ele>
        <time>2023-10-30T11:10:43Z</time>
      </trkpt>
      <trkpt lat="45.53278" lon="-0.80428">
        <ele>57.7</ele>
        <time>2023-10-30T11:10:49Z</time>
      </trkpt>
      <trkpt lat="45.53287" lon="-0.80452">
        <ele>57.7</ele>
        <time>2023-10-30T11:10:55Z</time>
      </trkpt>
      <trkpt lat="45.53293" lon="-0.80476">
        <ele>57.7</ele>
        <time>2023-10-30T11:11:01Z</time>
      </trkpt>
      <trkpt lat="45.533" lon="-0.80501">
        <ele>57.7</ele>
        <time>2023-10-30T11:11:07Z</time>
      </trkpt>
      <trkpt lat="45.53307" lon="-0.80525">
        <ele>57.9</ele>
        <time>2023-10-30T11:11:13Z</time>
      </trkpt>
      <trkpt lat="45.53315" lon="-0.80549">
        <ele>58</ele>
        <time>2023-10-30T11:11:19Z</time>
      </trkpt>
      <trkpt lat="45.53327" lon="-0.80569">
        <ele>58.1</ele>
        <time>2023-10-30T11:11:25Z</time>
      </trkpt>
      <trkpt lat="45.53332" lon="-0.80571">
        <ele>58.1</ele>
        <time>2023-10-30T11:11:27Z</time>
      </trkpt>
      <trkpt lat="45.53349" lon="-0.80559">
        <ele>58</ele>
        <time>2023-10-30T11:11:33Z</time>
      </trkpt>
      <trkpt lat="45.53365" lon="-0.80545">
        <ele>57.9</ele>
        <time>2023-10-30T11:11:39Z</time>
      </trkpt>
      <trkpt lat="45.53382" lon="-0.80531">
        <ele>57.9</ele>
        <time>2023-10-30T11:11:45Z</time>
      </trkpt>
      <trkpt lat="45.53398" lon="-0.80519">
        <ele>57.9</ele>
        <time>2023-10-30T11:11:51Z</time>
      </trkpt>
      <trkpt lat="45.53415" lon="-0.80507">
        <ele>57.9</ele>
        <time>2023-10-30T11:11:57Z</time>
      </trkpt>
      <trkpt lat="45.53431" lon="-0.80495">
        <ele>57.9</ele>
        <time>2023-10-30T11:12:03Z</time>
      </trkpt>
      <trkpt lat="45.53448" lon="-0.80484">
        <ele>57.8</ele>
        <time>2023-10-30T11:12:09Z</time>
      </trkpt>
      <trkpt lat="45.53466" lon="-0.80474">
        <ele>57.8</ele>
        <time>2023-10-30T11:12:15Z</time>
      </trkpt>
      <trkpt lat="45.53483" lon="-0.80467">
        <ele>57.7</ele>
        <time>2023-10-30T11:12:21Z</time>
      </trkpt>
      <trkpt lat="45.53501" lon="-0.80458">
        <ele>57.6</ele>
        <time>2023-10-30T11:12:27Z</time>
      </trkpt>
      <trkpt lat="45.53519" lon="-0.80448">
        <ele>57.5</ele>
        <time>2023-10-30T11:12:33Z</time>
      </trkpt>
      <trkpt lat="45.53536" lon="-0.80437">
        <ele>57.5</ele>
        <time>2023-10-30T11:12:39Z</time>
      </trkpt>
      <trkpt lat="45.53554" lon="-0.80427">
        <ele>57.4</ele>
        <time>2023-10-30T11:12:45Z</time>
      </trkpt>
      <trkpt lat="45.53573" lon="-0.80418">
        <ele>57.3</ele>
        <time>2023-10-30T11:12:51Z</time>
      </trkpt>
      <trkpt lat="45.53592" lon="-0.80413">
        <ele>57.2</ele>
        <time>2023-10-30T11:12:57Z</time>
      </trkpt>
      <trkpt lat="45.53611" lon="-0.80411">
        <ele>57.2</ele>
        <time>2023-10-30T11:13:03Z</time>
      </trkpt>
      <trkpt lat="45.53631" lon="-0.80408">
        <ele>57.1</ele>
        <time>2023-10-30T11:13:09Z</time>
      </trkpt>
      <trkpt lat="45.53651" lon="-0.80407">
        <ele>57.1</ele>
        <time>2023-10-30T11:13:15Z</time>
      </trkpt>
      <trkpt lat="45.53669" lon="-0.80409">
        <ele>57.1</ele>
        <time>2023-10-30T11:13:21Z</time>
      </trkpt>
      <trkpt lat="45.53689" lon="-0.80411">
        <ele>57.1</ele>
        <time>2023-10-30T11:13:27Z</time>
      </trkpt>
      <trkpt lat="45.53708" lon="-0.80416">
        <ele>57.2</ele>
        <time>2023-10-30T11:13:33Z</time>
      </trkpt>
      <trkpt lat="45.53726" lon="-0.8042">
        <ele>57.2</ele>
        <time>2023-10-30T11:13:39Z</time>
      </trkpt>
      <trkpt lat="45.53745" lon="-0.80425">
        <ele>57.2</ele>
        <time>2023-10-30T11:13:45Z</time>
      </trkpt>
      <trkpt lat="45.53764" lon="-0.80433">
        <ele>57.2</ele>
        <time>2023-10-30T11:13:51Z</time>
      </trkpt>
      <trkpt lat="45.53782" lon="-0.8044">
        <ele>57.2</ele>
        <time>2023-10-30T11:13:57Z</time>
      </trkpt>
      <trkpt lat="45.53803" lon="-0.80441">
        <ele>57.2</ele>
        <time>2023-10-30T11:14:03Z</time>
      </trkpt>
      <trkpt lat="45.53821" lon="-0.80435">
        <ele>57.2</ele>
        <time>2023-10-30T11:14:08Z</time>
      </trkpt>
      <trkpt lat="45.53841" lon="-0.80427">
        <ele>57</ele>
        <time>2023-10-30T11:14:14Z</time>
      </trkpt>
      <trkpt lat="45.53859" lon="-0.80416">
        <ele>56.8</ele>
        <time>2023-10-30T11:14:20Z</time>
      </trkpt>
      <trkpt lat="45.53876" lon="-0.80404">
        <ele>56.6</ele>
        <time>2023-10-30T11:14:26Z</time>
      </trkpt>
      <trkpt lat="45.53895" lon="-0.80392">
        <ele>56.4</ele>
        <time>2023-10-30T11:14:32Z</time>
      </trkpt>
      <trkpt lat="45.53915" lon="-0.80386">
        <ele>56.3</ele>
        <time>2023-10-30T11:14:38Z</time>
      </trkpt>
      <trkpt lat="45.53934" lon="-0.80383">
        <ele>56.2</ele>
        <time>2023-10-30T11:14:44Z</time>
      </trkpt>
      <trkpt lat="45.53953" lon="-0.8038">
        <ele>56.2</ele>
        <time>2023-10-30T11:14:50Z</time>
      </trkpt>
      <trkpt lat="45.53973" lon="-0.80376">
        <ele>56.1</ele>
        <time>2023-10-30T11:14:56Z</time>
      </trkpt>
      <trkpt lat="45.53992" lon="-0.80373">
        <ele>56.1</ele>
        <time>2023-10-30T11:15:02Z</time>
      </trkpt>
      <trkpt lat="45.54012" lon="-0.8037">
        <ele>56.1</ele>
        <time>2023-10-30T11:15:08Z</time>
      </trkpt>
      <trkpt lat="45.54031" lon="-0.80368">
        <ele>56</ele>
        <time>2023-10-30T11:15:14Z</time>
      </trkpt>
      <trkpt lat="45.5405" lon="-0.80366">
        <ele>55.8</ele>
        <time>2023-10-30T11:15:20Z</time>
      </trkpt>
      <trkpt lat="45.5407" lon="-0.80365">
        <ele>55.6</ele>
        <time>2023-10-30T11:15:26Z</time>
      </trkpt>
      <trkpt lat="45.54088" lon="-0.80364">
        <ele>55.4</ele>
        <time>2023-10-30T11:15:32Z</time>
      </trkpt>
      <trkpt lat="45.54107" lon="-0.80363">
        <ele>55.4</ele>
        <time>2023-10-30T11:15:38Z</time>
      </trkpt>
      <trkpt lat="45.54126" lon="-0.80361">
        <ele>55.6</ele>
        <time>2023-10-30T11:15:44Z</time>
      </trkpt>
      <trkpt lat="45.54146" lon="-0.80358">
        <ele>56</ele>
        <time>2023-10-30T11:15:50Z</time>
      </trkpt>
      <trkpt lat="45.54166" lon="-0.80365">
        <ele>55.8</ele>
        <time>2023-10-30T11:15:57Z</time>
      </trkpt>
      <trkpt lat="45.54186" lon="-0.80366">
        <ele>55.6</ele>
        <time>2023-10-30T11:16:04Z</time>
      </trkpt>
      <trkpt lat="45.54203" lon="-0.80355">
        <ele>55.4</ele>
        <time>2023-10-30T11:16:10Z</time>
      </trkpt>
      <trkpt lat="45.54218" lon="-0.80334">
        <ele>55.1</ele>
        <time>2023-10-30T11:16:16Z</time>
      </trkpt>
      <trkpt lat="45.54233" lon="-0.80313">
        <ele>54.6</ele>
        <time>2023-10-30T11:16:23Z</time>
      </trkpt>
      <trkpt lat="45.54248" lon="-0.80295">
        <ele>54.2</ele>
        <time>2023-10-30T11:16:29Z</time>
      </trkpt>
      <trkpt lat="45.54264" lon="-0.80279">
        <ele>53.7</ele>
        <time>2023-10-30T11:16:35Z</time>
      </trkpt>
      <trkpt lat="45.54281" lon="-0.80264">
        <ele>53.2</ele>
        <time>2023-10-30T11:16:41Z</time>
      </trkpt>
      <trkpt lat="45.54298" lon="-0.80249">
        <ele>52.7</ele>
        <time>2023-10-30T11:16:47Z</time>
      </trkpt>
      <trkpt lat="45.54313" lon="-0.80234">
        <ele>52.3</ele>
        <time>2023-10-30T11:16:52Z</time>
      </trkpt>
      <trkpt lat="45.54329" lon="-0.80216">
        <ele>51.8</ele>
        <time>2023-10-30T11:16:58Z</time>
      </trkpt>
      <trkpt lat="45.54346" lon="-0.80199">
        <ele>51.3</ele>
        <time>2023-10-30T11:17:04Z</time>
      </trkpt>
      <trkpt lat="45.54364" lon="-0.80184">
        <ele>50.9</ele>
        <time>2023-10-30T11:17:10Z</time>
      </trkpt>
      <trkpt lat="45.54382" lon="-0.80171">
        <ele>50.6</ele>
        <time>2023-10-30T11:17:16Z</time>
      </trkpt>
      <trkpt lat="45.54401" lon="-0.80161">
        <ele>50.2</ele>
        <time>2023-10-30T11:17:22Z</time>
      </trkpt>
      <trkpt lat="45.54421" lon="-0.80154">
        <ele>49.8</ele>
        <time>2023-10-30T11:17:28Z</time>
      </trkpt>
      <trkpt lat="45.5444" lon="-0.80146">
        <ele>49.4</ele>
        <time>2023-10-30T11:17:34Z</time>
      </trkpt>
      <trkpt lat="45.54457" lon="-0.80137">
        <ele>49.1</ele>
        <time>2023-10-30T11:17:40Z</time>
      </trkpt>
      <trkpt lat="45.54474" lon="-0.80121">
        <ele>48.9</ele>
        <time>2023-10-30T11:17:46Z</time>
      </trkpt>
      <trkpt lat="45.54492" lon="-0.80107">
        <ele>48.5</ele>
        <time>2023-10-30T11:17:52Z</time>
      </trkpt>
      <trkpt lat="45.54511" lon="-0.80097">
        <ele>48.3</ele>
        <time>2023-10-30T11:17:58Z</time>
      </trkpt>
      <trkpt lat="45.54524" lon="-0.80075">
        <ele>48.3</ele>
        <time>2023-10-30T11:18:04Z</time>
      </trkpt>
      <trkpt lat="45.54535" lon="-0.80049">
        <ele>48.3</ele>
        <time>2023-10-30T11:18:10Z</time>
      </trkpt>
      <trkpt lat="45.54544" lon="-0.80022">
        <ele>48.3</ele>
        <time>2023-10-30T11:18:16Z</time>
      </trkpt>
      <trkpt lat="45.54547" lon="-0.79994">
        <ele>48.3</ele>
        <time>2023-10-30T11:18:22Z</time>
      </trkpt>
      <trkpt lat="45.5455" lon="-0.79964">
        <ele>48.2</ele>
        <time>2023-10-30T11:18:28Z</time>
      </trkpt>
      <trkpt lat="45.54553" lon="-0.79936">
        <ele>48.1</ele>
        <time>2023-10-30T11:18:34Z</time>
      </trkpt>
      <trkpt lat="45.54552" lon="-0.79908">
        <ele>48.1</ele>
        <time>2023-10-30T11:18:40Z</time>
      </trkpt>
      <trkpt lat="45.54548" lon="-0.79881">
        <ele>48</ele>
        <time>2023-10-30T11:18:46Z</time>
      </trkpt>
      <trkpt lat="45.54543" lon="-0.79853">
        <ele>48</ele>
        <time>2023-10-30T11:18:52Z</time>
      </trkpt>
      <trkpt lat="45.54546" lon="-0.79828">
        <ele>48</ele>
        <time>2023-10-30T11:18:58Z</time>
      </trkpt>
      <trkpt lat="45.54564" lon="-0.79819">
        <ele>48.1</ele>
        <time>2023-10-30T11:19:04Z</time>
      </trkpt>
      <trkpt lat="45.54583" lon="-0.7981">
        <ele>48.1</ele>
        <time>2023-10-30T11:19:10Z</time>
      </trkpt>
      <trkpt lat="45.54602" lon="-0.798">
        <ele>48.2</ele>
        <time>2023-10-30T11:19:16Z</time>
      </trkpt>
      <trkpt lat="45.5462" lon="-0.7979">
        <ele>48.3</ele>
        <time>2023-10-30T11:19:22Z</time>
      </trkpt>
      <trkpt lat="45.54638" lon="-0.7978">
        <ele>48.4</ele>
        <time>2023-10-30T11:19:28Z</time>
      </trkpt>
      <trkpt lat="45.54657" lon="-0.79769">
        <ele>48.5</ele>
        <time>2023-10-30T11:19:34Z</time>
      </trkpt>
      <trkpt lat="45.54674" lon="-0.79756">
        <ele>48.7</ele>
        <time>2023-10-30T11:19:40Z</time>
      </trkpt>
      <trkpt lat="45.54691" lon="-0.79744">
        <ele>48.9</ele>
        <time>2023-10-30T11:19:46Z</time>
      </trkpt>
      <trkpt lat="45.54707" lon="-0.7973">
        <ele>49.2</ele>
        <time>2023-10-30T11:19:52Z</time>
      </trkpt>
      <trkpt lat="45.54721" lon="-0.79712">
        <ele>49.5</ele>
        <time>2023-10-30T11:19:58Z</time>
      </trkpt>
      <trkpt lat="45.54735" lon="-0.79694">
        <ele>49.8</ele>
        <time>2023-10-30T11:20:04Z</time>
      </trkpt>
      <trkpt lat="45.54738" lon="-0.79668">
        <ele>49.8</ele>
        <time>2023-10-30T11:20:09Z</time>
      </trkpt>
      <trkpt lat="45.54734" lon="-0.7964">
        <ele>49.9</ele>
        <time>2023-10-30T11:20:15Z</time>
      </trkpt>
      <trkpt lat="45.54728" lon="-0.79613">
        <ele>49.9</ele>
        <time>2023-10-30T11:20:21Z</time>
      </trkpt>
      <trkpt lat="45.54722" lon="-0.79585">
        <ele>49.8</ele>
        <time>2023-10-30T11:20:27Z</time>
      </trkpt>
      <trkpt lat="45.54715" lon="-0.79559">
        <ele>49.7</ele>
        <time>2023-10-30T11:20:33Z</time>
      </trkpt>
      <trkpt lat="45.54709" lon="-0.79532">
        <ele>49.6</ele>
        <time>2023-10-30T11:20:39Z</time>
      </trkpt>
      <trkpt lat="45.54702" lon="-0.79506">
        <ele>49.6</ele>
        <time>2023-10-30T11:20:45Z</time>
      </trkpt>
      <trkpt lat="45.54696" lon="-0.79479">
        <ele>49.5</ele>
        <time>2023-10-30T11:20:51Z</time>
      </trkpt>
      <trkpt lat="45.54688" lon="-0.79453">
        <ele>49.4</ele>
        <time>2023-10-30T11:20:57Z</time>
      </trkpt>
      <trkpt lat="45.5468" lon="-0.79427">
        <ele>49.3</ele>
        <time>2023-10-30T11:21:03Z</time>
      </trkpt>
      <trkpt lat="45.54674" lon="-0.79401">
        <ele>49.2</ele>
        <time>2023-10-30T11:21:09Z</time>
      </trkpt>
      <trkpt lat="45.54669" lon="-0.79375">
        <ele>49.2</ele>
        <time>2023-10-30T11:21:15Z</time>
      </trkpt>
      <trkpt lat="45.54662" lon="-0.79349">
        <ele>49.1</ele>
        <time>2023-10-30T11:21:21Z</time>
      </trkpt>
      <trkpt lat="45.54654" lon="-0.79324">
        <ele>49</ele>
        <time>2023-10-30T11:21:27Z</time>
      </trkpt>
      <trkpt lat="45.54645" lon="-0.793">
        <ele>48.9</ele>
        <time>2023-10-30T11:21:33Z</time>
      </trkpt>
      <trkpt lat="45.54634" lon="-0.79275">
        <ele>48.8</ele>
        <time>2023-10-30T11:21:39Z</time>
      </trkpt>
      <trkpt lat="45.5462" lon="-0.79251">
        <ele>48.7</ele>
        <time>2023-10-30T11:21:45Z</time>
      </trkpt>
      <trkpt lat="45.54609" lon="-0.79226">
        <ele>48.7</ele>
        <time>2023-10-30T11:21:51Z</time>
      </trkpt>
      <trkpt lat="45.54604" lon="-0.79199">
        <ele>48.5</ele>
        <time>2023-10-30T11:21:57Z</time>
      </trkpt>
      <trkpt lat="45.54605" lon="-0.7917">
        <ele>48.2</ele>
        <time>2023-10-30T11:22:03Z</time>
      </trkpt>
      <trkpt lat="45.54608" lon="-0.79142">
        <ele>47.9</ele>
        <time>2023-10-30T11:22:09Z</time>
      </trkpt>
      <trkpt lat="45.54619" lon="-0.79119">
        <ele>47.6</ele>
        <time>2023-10-30T11:22:15Z</time>
      </trkpt>
      <trkpt lat="45.54634" lon="-0.79102">
        <ele>47.4</ele>
        <time>2023-10-30T11:22:21Z</time>
      </trkpt>
      <trkpt lat="45.54651" lon="-0.79087">
        <ele>47.1</ele>
        <time>2023-10-30T11:22:27Z</time>
      </trkpt>
      <trkpt lat="45.54667" lon="-0.79072">
        <ele>46.8</ele>
        <time>2023-10-30T11:22:33Z</time>
      </trkpt>
      <trkpt lat="45.54683" lon="-0.79057">
        <ele>46.6</ele>
        <time>2023-10-30T11:22:39Z</time>
      </trkpt>
      <trkpt lat="45.547" lon="-0.79041">
        <ele>46.3</ele>
        <time>2023-10-30T11:22:45Z</time>
      </trkpt>
      <trkpt lat="45.54718" lon="-0.79026">
        <ele>46</ele>
        <time>2023-10-30T11:22:51Z</time>
      </trkpt>
      <trkpt lat="45.54735" lon="-0.79009">
        <ele>45.7</ele>
        <time>2023-10-30T11:22:57Z</time>
      </trkpt>
      <trkpt lat="45.54749" lon="-0.78992">
        <ele>45.4</ele>
        <time>2023-10-30T11:23:02Z</time>
      </trkpt>
      <trkpt lat="45.54759" lon="-0.78969">
        <ele>45.2</ele>
        <time>2023-10-30T11:23:07Z</time>
      </trkpt>
      <trkpt lat="45.54766" lon="-0.78945">
        <ele>44.9</ele>
        <time>2023-10-30T11:23:12Z</time>
      </trkpt>
      <trkpt lat="45.54768" lon="-0.78915">
        <ele>44.6</ele>
        <time>2023-10-30T11:23:18Z</time>
      </trkpt>
      <trkpt lat="45.54769" lon="-0.78886">
        <ele>44.4</ele>
        <time>2023-10-30T11:23:24Z</time>
      </trkpt>
      <trkpt lat="45.54774" lon="-0.78864">
        <ele>44.1</ele>
        <time>2023-10-30T11:23:30Z</time>
      </trkpt>
      <trkpt lat="45.54794" lon="-0.78869">
        <ele>44.1</ele>
        <time>2023-10-30T11:23:37Z</time>
      </trkpt>
      <trkpt lat="45.5481" lon="-0.78888">
        <ele>44.3</ele>
        <time>2023-10-30T11:23:43Z</time>
      </trkpt>
      <trkpt lat="45.54823" lon="-0.78908">
        <ele>44.5</ele>
        <time>2023-10-30T11:23:49Z</time>
      </trkpt>
      <trkpt lat="45.54839" lon="-0.78927">
        <ele>44.6</ele>
        <time>2023-10-30T11:23:55Z</time>
      </trkpt>
      <trkpt lat="45.54847" lon="-0.78923">
        <ele>44.6</ele>
        <time>2023-10-30T11:23:58Z</time>
      </trkpt>
      <trkpt lat="45.5486" lon="-0.78899">
        <ele>44.5</ele>
        <time>2023-10-30T11:24:04Z</time>
      </trkpt>
      <trkpt lat="45.54872" lon="-0.78877">
        <ele>44.5</ele>
        <time>2023-10-30T11:24:10Z</time>
      </trkpt>
      <trkpt lat="45.54883" lon="-0.78855">
        <ele>44.5</ele>
        <time>2023-10-30T11:24:16Z</time>
      </trkpt>
      <trkpt lat="45.54894" lon="-0.78834">
        <ele>44.5</ele>
        <time>2023-10-30T11:24:22Z</time>
      </trkpt>
      <trkpt lat="45.54905" lon="-0.7881">
        <ele>44.5</ele>
        <time>2023-10-30T11:24:29Z</time>
      </trkpt>
      <trkpt lat="45.54916" lon="-0.78789">
        <ele>44.5</ele>
        <time>2023-10-30T11:24:35Z</time>
      </trkpt>
      <trkpt lat="45.54927" lon="-0.78765">
        <ele>44.5</ele>
        <time>2023-10-30T11:24:41Z</time>
      </trkpt>
      <trkpt lat="45.54937" lon="-0.78741">
        <ele>44.5</ele>
        <time>2023-10-30T11:24:47Z</time>
      </trkpt>
      <trkpt lat="45.54949" lon="-0.78716">
        <ele>44.5</ele>
        <time>2023-10-30T11:24:53Z</time>
      </trkpt>
      <trkpt lat="45.5496" lon="-0.78692">
        <ele>44.5</ele>
        <time>2023-10-30T11:24:59Z</time>
      </trkpt>
      <trkpt lat="45.5497" lon="-0.78668">
        <ele>44.4</ele>
        <time>2023-10-30T11:25:05Z</time>
      </trkpt>
      <trkpt lat="45.54981" lon="-0.78647">
        <ele>44.2</ele>
        <time>2023-10-30T11:25:11Z</time>
      </trkpt>
      <trkpt lat="45.54993" lon="-0.78626">
        <ele>44.3</ele>
        <time>2023-10-30T11:25:17Z</time>
      </trkpt>
      <trkpt lat="45.55005" lon="-0.78605">
        <ele>44</ele>
        <time>2023-10-30T11:25:23Z</time>
      </trkpt>
      <trkpt lat="45.55018" lon="-0.78584">
        <ele>44.2</ele>
        <time>2023-10-30T11:25:29Z</time>
      </trkpt>
      <trkpt lat="45.5503" lon="-0.78564">
        <ele>44.2</ele>
        <time>2023-10-30T11:25:35Z</time>
      </trkpt>
      <trkpt lat="45.55044" lon="-0.78543">
        <ele>44.3</ele>
        <time>2023-10-30T11:25:41Z</time>
      </trkpt>
      <trkpt lat="45.55054" lon="-0.78519">
        <ele>44.5</ele>
        <time>2023-10-30T11:25:47Z</time>
      </trkpt>
      <trkpt lat="45.55058" lon="-0.7849">
        <ele>44.6</ele>
        <time>2023-10-30T11:25:53Z</time>
      </trkpt>
      <trkpt lat="45.55058" lon="-0.78461">
        <ele>44.8</ele>
        <time>2023-10-30T11:25:59Z</time>
      </trkpt>
      <trkpt lat="45.55057" lon="-0.78435">
        <ele>45</ele>
        <time>2023-10-30T11:26:05Z</time>
      </trkpt>
      <trkpt lat="45.5506" lon="-0.78407">
        <ele>45.2</ele>
        <time>2023-10-30T11:26:11Z</time>
      </trkpt>
      <trkpt lat="45.55064" lon="-0.78381">
        <ele>45.4</ele>
        <time>2023-10-30T11:26:17Z</time>
      </trkpt>
      <trkpt lat="45.5507" lon="-0.78356">
        <ele>45.6</ele>
        <time>2023-10-30T11:26:23Z</time>
      </trkpt>
      <trkpt lat="45.55078" lon="-0.78329">
        <ele>45.8</ele>
        <time>2023-10-30T11:26:30Z</time>
      </trkpt>
      <trkpt lat="45.55092" lon="-0.78312">
        <ele>46.1</ele>
        <time>2023-10-30T11:26:36Z</time>
      </trkpt>
      <trkpt lat="45.55108" lon="-0.78293">
        <ele>46.3</ele>
        <time>2023-10-30T11:26:42Z</time>
      </trkpt>
      <trkpt lat="45.55121" lon="-0.78269">
        <ele>46.5</ele>
        <time>2023-10-30T11:26:48Z</time>
      </trkpt>
      <trkpt lat="45.55132" lon="-0.78243">
        <ele>46.8</ele>
        <time>2023-10-30T11:26:54Z</time>
      </trkpt>
      <trkpt lat="45.55136" lon="-0.78217">
        <ele>47</ele>
        <time>2023-10-30T11:26:59Z</time>
      </trkpt>
      <trkpt lat="45.55138" lon="-0.78188">
        <ele>46.9</ele>
        <time>2023-10-30T11:27:05Z</time>
      </trkpt>
      <trkpt lat="45.55138" lon="-0.78159">
        <ele>46.7</ele>
        <time>2023-10-30T11:27:11Z</time>
      </trkpt>
      <trkpt lat="45.55139" lon="-0.7813">
        <ele>46.4</ele>
        <time>2023-10-30T11:27:17Z</time>
      </trkpt>
      <trkpt lat="45.55142" lon="-0.78101">
        <ele>46.1</ele>
        <time>2023-10-30T11:27:23Z</time>
      </trkpt>
      <trkpt lat="45.55148" lon="-0.78071">
        <ele>45.8</ele>
        <time>2023-10-30T11:27:29Z</time>
      </trkpt>
      <trkpt lat="45.55154" lon="-0.78047">
        <ele>45.8</ele>
        <time>2023-10-30T11:27:34Z</time>
      </trkpt>
      <trkpt lat="45.55149" lon="-0.78021">
        <ele>45.9</ele>
        <time>2023-10-30T11:27:40Z</time>
      </trkpt>
      <trkpt lat="45.5513" lon="-0.78012">
        <ele>45.9</ele>
        <time>2023-10-30T11:27:46Z</time>
      </trkpt>
      <trkpt lat="45.55112" lon="-0.78004">
        <ele>46</ele>
        <time>2023-10-30T11:27:52Z</time>
      </trkpt>
      <trkpt lat="45.55094" lon="-0.77992">
        <ele>45.9</ele>
        <time>2023-10-30T11:27:58Z</time>
      </trkpt>
      <trkpt lat="45.55075" lon="-0.7798">
        <ele>45.7</ele>
        <time>2023-10-30T11:28:04Z</time>
      </trkpt>
      <trkpt lat="45.55057" lon="-0.77969">
        <ele>45.5</ele>
        <time>2023-10-30T11:28:10Z</time>
      </trkpt>
      <trkpt lat="45.55038" lon="-0.77959">
        <ele>45.4</ele>
        <time>2023-10-30T11:28:17Z</time>
      </trkpt>
      <trkpt lat="45.55018" lon="-0.77952">
        <ele>45.4</ele>
        <time>2023-10-30T11:28:24Z</time>
      </trkpt>
      <trkpt lat="45.55" lon="-0.77946">
        <ele>45.5</ele>
        <time>2023-10-30T11:28:30Z</time>
      </trkpt>
      <trkpt lat="45.54981" lon="-0.77948">
        <ele>45.5</ele>
        <time>2023-10-30T11:28:36Z</time>
      </trkpt>
      <trkpt lat="45.54973" lon="-0.77972">
        <ele>45.4</ele>
        <time>2023-10-30T11:28:42Z</time>
      </trkpt>
      <trkpt lat="45.54963" lon="-0.77995">
        <ele>45.4</ele>
        <time>2023-10-30T11:28:48Z</time>
      </trkpt>
      <trkpt lat="45.54945" lon="-0.77999">
        <ele>45.6</ele>
        <time>2023-10-30T11:28:55Z</time>
      </trkpt>
      <trkpt lat="45.54927" lon="-0.77985">
        <ele>45.6</ele>
        <time>2023-10-30T11:29:01Z</time>
      </trkpt>
      <trkpt lat="45.54912" lon="-0.77968">
        <ele>45.6</ele>
        <time>2023-10-30T11:29:07Z</time>
      </trkpt>
      <trkpt lat="45.54894" lon="-0.77954">
        <ele>45.5</ele>
        <time>2023-10-30T11:29:13Z</time>
      </trkpt>
      <trkpt lat="45.54874" lon="-0.77952">
        <ele>45.5</ele>
        <time>2023-10-30T11:29:19Z</time>
      </trkpt>
      <trkpt lat="45.54854" lon="-0.77959">
        <ele>45.4</ele>
        <time>2023-10-30T11:29:25Z</time>
      </trkpt>
      <trkpt lat="45.54836" lon="-0.77967">
        <ele>45</ele>
        <time>2023-10-30T11:29:31Z</time>
      </trkpt>
      <trkpt lat="45.54817" lon="-0.77971">
        <ele>44.6</ele>
        <time>2023-10-30T11:29:37Z</time>
      </trkpt>
      <trkpt lat="45.54799" lon="-0.7798">
        <ele>44.2</ele>
        <time>2023-10-30T11:29:44Z</time>
      </trkpt>
      <trkpt lat="45.54782" lon="-0.77989">
        <ele>43.7</ele>
        <time>2023-10-30T11:29:49Z</time>
      </trkpt>
      <trkpt lat="45.54763" lon="-0.78">
        <ele>43</ele>
        <time>2023-10-30T11:29:54Z</time>
      </trkpt>
      <trkpt lat="45.54746" lon="-0.78016">
        <ele>42.2</ele>
        <time>2023-10-30T11:29:59Z</time>
      </trkpt>
      <trkpt lat="45.54731" lon="-0.78029">
        <ele>41.5</ele>
        <time>2023-10-30T11:30:04Z</time>
      </trkpt>
      <trkpt lat="45.54712" lon="-0.7804">
        <ele>40.8</ele>
        <time>2023-10-30T11:30:10Z</time>
      </trkpt>
      <trkpt lat="45.54693" lon="-0.78039">
        <ele>40.5</ele>
        <time>2023-10-30T11:30:17Z</time>
      </trkpt>
      <trkpt lat="45.54677" lon="-0.78026">
        <ele>40.6</ele>
        <time>2023-10-30T11:30:23Z</time>
      </trkpt>
      <trkpt lat="45.5466" lon="-0.78012">
        <ele>40.7</ele>
        <time>2023-10-30T11:30:30Z</time>
      </trkpt>
      <trkpt lat="45.54643" lon="-0.78001">
        <ele>40.8</ele>
        <time>2023-10-30T11:30:36Z</time>
      </trkpt>
      <trkpt lat="45.54628" lon="-0.77986">
        <ele>41.1</ele>
        <time>2023-10-30T11:30:44Z</time>
      </trkpt>
      <trkpt lat="45.54622" lon="-0.7796">
        <ele>41</ele>
        <time>2023-10-30T11:30:52Z</time>
      </trkpt>
      <trkpt lat="45.54615" lon="-0.77934">
        <ele>40.9</ele>
        <time>2023-10-30T11:30:57Z</time>
      </trkpt>
      <trkpt lat="45.54604" lon="-0.77911">
        <ele>40.8</ele>
        <time>2023-10-30T11:31:02Z</time>
      </trkpt>
      <trkpt lat="45.54594" lon="-0.77886">
        <ele>40.7</ele>
        <time>2023-10-30T11:31:08Z</time>
      </trkpt>
      <trkpt lat="45.54585" lon="-0.77862">
        <ele>40.6</ele>
        <time>2023-10-30T11:31:15Z</time>
      </trkpt>
      <trkpt lat="45.54576" lon="-0.77837">
        <ele>40.5</ele>
        <time>2023-10-30T11:31:22Z</time>
      </trkpt>
      <trkpt lat="45.54562" lon="-0.77819">
        <ele>40.4</ele>
        <time>2023-10-30T11:31:28Z</time>
      </trkpt>
      <trkpt lat="45.54546" lon="-0.77805">
        <ele>40.3</ele>
        <time>2023-10-30T11:31:35Z</time>
      </trkpt>
      <trkpt lat="45.5453" lon="-0.77791">
        <ele>40.2</ele>
        <time>2023-10-30T11:31:42Z</time>
      </trkpt>
      <trkpt lat="45.54515" lon="-0.77773">
        <ele>40.1</ele>
        <time>2023-10-30T11:31:48Z</time>
      </trkpt>
      <trkpt lat="45.54499" lon="-0.77759">
        <ele>40</ele>
        <time>2023-10-30T11:31:53Z</time>
      </trkpt>
      <trkpt lat="45.54484" lon="-0.77744">
        <ele>39.9</ele>
        <time>2023-10-30T11:31:58Z</time>
      </trkpt>
      <trkpt lat="45.54466" lon="-0.77729">
        <ele>39.8</ele>
        <time>2023-10-30T11:32:04Z</time>
      </trkpt>
      <trkpt lat="45.54448" lon="-0.77715">
        <ele>39.7</ele>
        <time>2023-10-30T11:32:10Z</time>
      </trkpt>
      <trkpt lat="45.54429" lon="-0.77701">
        <ele>39.6</ele>
        <time>2023-10-30T11:32:16Z</time>
      </trkpt>
      <trkpt lat="45.5441" lon="-0.77689">
        <ele>39.4</ele>
        <time>2023-10-30T11:32:22Z</time>
      </trkpt>
      <trkpt lat="45.54393" lon="-0.77676">
        <ele>39.3</ele>
        <time>2023-10-30T11:32:27Z</time>
      </trkpt>
      <trkpt lat="45.54375" lon="-0.77661">
        <ele>39.2</ele>
        <time>2023-10-30T11:32:33Z</time>
      </trkpt>
      <trkpt lat="45.54357" lon="-0.77645">
        <ele>39.1</ele>
        <time>2023-10-30T11:32:39Z</time>
      </trkpt>
      <trkpt lat="45.54341" lon="-0.7763">
        <ele>39</ele>
        <time>2023-10-30T11:32:45Z</time>
      </trkpt>
      <trkpt lat="45.54322" lon="-0.77614">
        <ele>38.9</ele>
        <time>2023-10-30T11:32:51Z</time>
      </trkpt>
      <trkpt lat="45.54313" lon="-0.77615">
        <ele>38.9</ele>
        <time>2023-10-30T11:32:54Z</time>
      </trkpt>
      <trkpt lat="45.54303" lon="-0.77637">
        <ele>38.9</ele>
        <time>2023-10-30T11:32:59Z</time>
      </trkpt>
      <trkpt lat="45.54291" lon="-0.77657">
        <ele>39</ele>
        <time>2023-10-30T11:33:04Z</time>
      </trkpt>
      <trkpt lat="45.54282" lon="-0.7768">
        <ele>39.2</ele>
        <time>2023-10-30T11:33:10Z</time>
      </trkpt>
      <trkpt lat="45.54273" lon="-0.77693">
        <ele>39.3</ele>
        <time>2023-10-30T11:33:15Z</time>
      </trkpt>
      <trkpt lat="45.54258" lon="-0.77679">
        <ele>39.2</ele>
        <time>2023-10-30T11:33:21Z</time>
      </trkpt>
      <trkpt lat="45.54252" lon="-0.77666">
        <ele>39.1</ele>
        <time>2023-10-30T11:33:24Z</time>
      </trkpt>
      <trkpt lat="45.54261" lon="-0.77642">
        <ele>39.1</ele>
        <time>2023-10-30T11:33:31Z</time>
      </trkpt>
    </trkseg>
  </trk>
</gpx>